createdAt,value
2023-04-29T00:01:02.710Z,11.00
2023-04-29T00:03:32.448Z,11.00
2023-04-29T00:06:00.241Z,11.00
2023-04-29T00:08:27.280Z,11.00
2023-04-29T00:10:54.173Z,11.00
2023-04-29T00:13:21.243Z,10.90
2023-04-29T00:15:48.071Z,10.90
2023-04-29T00:18:14.724Z,10.90
2023-04-29T00:20:42.195Z,10.90
2023-04-29T00:23:09.083Z,10.90
2023-04-29T00:25:35.997Z,10.90
2023-04-29T00:28:03.378Z,11.00
2023-04-29T00:30:30.989Z,11.00
2023-04-29T00:32:57.705Z,11.00
2023-04-29T00:35:24.362Z,11.00
2023-04-29T00:37:51.046Z,11.00
2023-04-29T00:40:17.759Z,11.00
2023-04-29T00:42:44.545Z,10.90
2023-04-29T00:45:11.866Z,10.90
2023-04-29T00:47:39.128Z,10.90
2023-04-29T00:50:07.912Z,10.90
2023-04-29T00:52:35.207Z,10.90
2023-04-29T00:55:02.571Z,10.90
2023-04-29T00:57:30.052Z,11.00
2023-04-29T00:59:58.814Z,11.00
2023-04-29T01:02:26.601Z,11.00
2023-04-29T01:04:53.424Z,11.00
2023-04-29T01:07:34.459Z,11.00
2023-04-29T01:10:12.678Z,11.10
2023-04-29T01:12:50.757Z,11.10
2023-04-29T01:15:25.996Z,11.10
2023-04-29T01:18:08.975Z,11.10
2023-04-29T01:20:36.092Z,11.10
2023-04-29T01:23:02.746Z,11.10
2023-04-29T01:25:29.456Z,11.10
2023-04-29T01:28:43.581Z,11.20
2023-04-29T01:31:32.748Z,11.20
2023-04-29T01:34:14.426Z,11.20
2023-04-29T01:37:15.819Z,11.20
2023-04-29T01:39:59.254Z,11.20
2023-04-29T01:42:51.523Z,11.20
2023-04-29T01:45:19.190Z,11.30
2023-04-29T01:47:47.293Z,11.30
2023-04-29T01:50:13.961Z,11.30
2023-04-29T01:52:40.650Z,11.30
2023-04-29T01:55:07.649Z,11.30
2023-04-29T01:57:34.406Z,11.30
2023-04-29T02:00:02.142Z,11.30
2023-04-29T02:02:28.925Z,11.30
2023-04-29T02:04:55.886Z,11.30
2023-04-29T02:07:22.737Z,11.30
2023-04-29T02:09:49.569Z,11.20
2023-04-29T02:12:16.259Z,11.20
2023-04-29T02:14:42.880Z,11.20
2023-04-29T02:17:09.475Z,11.20
2023-04-29T02:19:36.132Z,11.10
2023-04-29T02:22:03.148Z,11.20
2023-04-29T02:24:29.775Z,11.10
2023-04-29T02:26:57.001Z,11.10
2023-04-29T02:29:23.666Z,11.00
2023-04-29T02:31:50.722Z,11.10
2023-04-29T02:34:17.997Z,11.00
2023-04-29T02:36:44.728Z,11.00
2023-04-29T02:39:11.424Z,11.00
2023-04-29T02:41:38.096Z,11.00
2023-04-29T02:44:04.710Z,11.00
2023-04-29T02:46:33.460Z,11.00
2023-04-29T02:49:00.991Z,11.00
2023-04-29T02:51:28.176Z,11.00
2023-04-29T02:53:55.378Z,10.90
2023-04-29T02:56:23.343Z,10.90
2023-04-29T02:58:50.057Z,11.00
2023-04-29T03:01:16.777Z,10.90
2023-04-29T03:03:43.530Z,10.90
2023-04-29T03:06:10.334Z,11.00
2023-04-29T03:08:37.010Z,10.90
2023-04-29T03:11:03.666Z,10.80
2023-04-29T03:13:30.380Z,10.80
2023-04-29T03:15:58.659Z,10.70
2023-04-29T03:18:25.613Z,10.70
2023-04-29T03:20:52.272Z,10.70
2023-04-29T03:23:18.865Z,10.60
2023-04-29T03:25:45.539Z,10.60
2023-04-29T03:28:12.174Z,10.50
2023-04-29T03:30:38.824Z,10.50
2023-04-29T03:33:05.501Z,10.50
2023-04-29T03:35:32.261Z,10.50
2023-04-29T03:37:58.912Z,10.50
2023-04-29T03:40:25.573Z,10.40
2023-04-29T03:42:52.249Z,10.50
2023-04-29T03:45:19.217Z,10.50
2023-04-29T03:47:45.986Z,10.50
2023-04-29T03:50:12.611Z,10.50
2023-04-29T03:52:39.509Z,10.50
2023-04-29T03:55:06.323Z,10.50
2023-04-29T03:57:32.992Z,10.50
2023-04-29T03:59:59.622Z,10.60
2023-04-29T04:02:26.612Z,10.50
2023-04-29T04:04:55.207Z,10.50
2023-04-29T04:07:22.134Z,10.50
2023-04-29T04:09:49.067Z,10.50
2023-04-29T04:12:15.862Z,10.50
2023-04-29T04:14:42.452Z,10.60
2023-04-29T04:17:09.106Z,10.60
2023-04-29T04:19:35.823Z,10.60
2023-04-29T04:22:04.010Z,10.50
2023-04-29T04:24:30.613Z,10.50
2023-04-29T04:26:57.296Z,10.50
2023-04-29T04:29:23.973Z,10.50
2023-04-29T04:31:50.683Z,10.50
2023-04-29T04:34:17.324Z,10.40
2023-04-29T04:36:44.019Z,10.40
2023-04-29T04:39:10.733Z,10.40
2023-04-29T04:41:37.432Z,10.40
2023-04-29T04:44:04.657Z,10.40
2023-04-29T04:46:31.360Z,10.40
2023-04-29T04:48:58.380Z,10.40
2023-04-29T04:51:25.013Z,10.40
2023-04-29T04:53:51.692Z,10.40
2023-04-29T04:56:18.304Z,10.40
2023-04-29T04:58:44.925Z,10.30
2023-04-29T05:01:11.753Z,10.30
2023-04-29T05:03:38.770Z,10.30
2023-04-29T05:06:05.658Z,10.30
2023-04-29T05:08:32.533Z,10.30
2023-04-29T05:10:59.312Z,10.30
2023-04-29T05:13:25.940Z,10.40
2023-04-29T05:15:52.590Z,10.40
2023-04-29T05:18:20.133Z,10.40
2023-04-29T05:20:46.802Z,10.40
2023-04-29T05:23:13.981Z,10.40
2023-04-29T05:25:40.617Z,10.50
2023-04-29T05:28:08.923Z,10.50
2023-04-29T05:30:38.792Z,10.50
2023-04-29T05:33:05.555Z,10.60
2023-04-29T05:35:32.232Z,10.50
2023-04-29T05:37:59.053Z,10.50
2023-04-29T05:40:27.157Z,10.50
2023-04-29T05:42:53.856Z,10.50
2023-04-29T05:45:24.299Z,10.50
2023-04-29T05:47:50.946Z,10.50
2023-04-29T05:50:17.972Z,10.40
2023-04-29T05:52:44.958Z,10.50
2023-04-29T05:55:11.616Z,10.50
2023-04-29T05:57:39.413Z,10.50
2023-04-29T06:00:07.166Z,10.50
2023-04-29T06:02:39.455Z,10.60
2023-04-29T06:05:13.722Z,10.60
2023-04-29T06:07:41.444Z,10.60
2023-04-29T06:10:12.258Z,10.60
2023-04-29T06:12:38.951Z,10.60
2023-04-29T06:15:06.092Z,10.60
2023-04-29T06:17:33.010Z,10.60
2023-04-29T06:19:59.828Z,10.70
2023-04-29T06:22:26.519Z,10.60
2023-04-29T06:24:53.211Z,10.60
2023-04-29T06:27:19.824Z,10.60
2023-04-29T06:29:47.791Z,10.60
2023-04-29T06:32:14.399Z,10.60
2023-04-29T06:34:41.334Z,10.50
2023-04-29T06:37:07.943Z,10.50
2023-04-29T06:39:37.572Z,10.50
2023-04-29T06:42:04.235Z,10.50
2023-04-29T06:44:31.024Z,10.50
2023-04-29T06:46:58.012Z,10.50
2023-04-29T06:49:24.672Z,10.40
2023-04-29T06:51:51.267Z,10.50
2023-04-29T06:54:17.986Z,10.40
2023-04-29T06:56:44.694Z,10.50
2023-04-29T06:59:15.229Z,10.40
2023-04-29T07:01:44.182Z,10.40
2023-04-29T07:04:15.108Z,10.40
2023-04-29T07:06:42.002Z,10.50
2023-04-29T07:09:15.007Z,10.40
2023-04-29T07:11:42.023Z,10.50
2023-04-29T07:14:08.970Z,10.40
2023-04-29T07:16:35.773Z,10.40
2023-04-29T07:19:02.519Z,10.50
2023-04-29T07:21:32.604Z,10.50
2023-04-29T07:24:02.284Z,10.60
2023-04-29T07:26:29.091Z,10.70
2023-04-29T07:28:55.753Z,10.70
2023-04-29T07:31:22.447Z,10.80
2023-04-29T07:33:49.322Z,10.80
2023-04-29T07:36:16.086Z,10.80
2023-04-29T07:38:42.861Z,10.80
2023-04-29T07:41:09.444Z,10.80
2023-04-29T07:43:36.377Z,10.90
2023-04-29T07:46:03.026Z,10.90
2023-04-29T07:48:29.773Z,10.90
2023-04-29T07:50:59.810Z,10.90
2023-04-29T07:53:27.137Z,10.90
2023-04-29T07:55:53.744Z,10.90
2023-04-29T07:58:20.332Z,10.90
2023-04-29T08:00:50.294Z,10.90
2023-04-29T08:03:17.167Z,11.00
2023-04-29T08:05:45.396Z,11.00
2023-04-29T08:08:12.098Z,11.00
2023-04-29T08:10:43.925Z,11.10
2023-04-29T08:13:11.102Z,11.00
2023-04-29T08:15:37.706Z,11.00
2023-04-29T08:18:04.412Z,11.00
2023-04-29T08:20:31.078Z,11.00
2023-04-29T08:23:00.666Z,11.00
2023-04-29T08:25:27.567Z,11.00
2023-04-29T08:27:54.225Z,11.00
2023-04-29T08:30:21.073Z,11.00
2023-04-29T08:32:47.898Z,11.10
2023-04-29T08:35:15.140Z,11.10
2023-04-29T08:37:41.792Z,11.20
2023-04-29T08:40:09.287Z,11.10
2023-04-29T08:42:37.633Z,11.10
2023-04-29T08:45:04.853Z,11.20
2023-04-29T08:47:33.173Z,11.20
2023-04-29T08:50:05.357Z,11.30
2023-04-29T08:52:32.927Z,11.40
2023-04-29T08:55:02.501Z,11.40
2023-04-29T08:57:31.279Z,11.40
2023-04-29T09:00:01.168Z,11.40
2023-04-29T09:02:34.931Z,11.50
2023-04-29T09:05:07.448Z,11.50
2023-04-29T09:07:42.098Z,11.50
2023-04-29T09:10:12.084Z,11.50
2023-04-29T09:12:39.467Z,11.50
2023-04-29T09:15:07.514Z,11.50
2023-04-29T09:17:46.509Z,11.50
2023-04-29T09:20:37.058Z,11.60
2023-04-29T09:23:05.448Z,11.80
2023-04-29T09:25:32.922Z,11.90
2023-04-29T09:28:17.317Z,12.00
2023-04-29T09:30:47.730Z,12.00
2023-04-29T09:33:17.103Z,11.90
2023-04-29T09:35:44.789Z,11.90
2023-04-29T09:38:19.592Z,11.90
2023-04-29T09:40:59.386Z,11.80
2023-04-29T09:43:27.561Z,11.80
2023-04-29T09:45:56.360Z,11.70
2023-04-29T09:48:36.880Z,11.60
2023-04-29T09:51:04.722Z,11.60
2023-04-29T09:53:45.039Z,11.60
2023-04-29T09:56:15.006Z,11.60
2023-04-29T09:58:49.194Z,11.60
2023-04-29T10:01:23.826Z,11.60
2023-04-29T10:03:53.257Z,11.50
2023-04-29T10:06:20.096Z,11.60
2023-04-29T10:08:51.992Z,11.70
2023-04-29T10:11:24.211Z,11.80
2023-04-29T10:13:52.616Z,11.90
2023-04-29T10:16:30.055Z,11.90
2023-04-29T10:19:01.257Z,12.00
2023-04-29T10:21:31.353Z,12.00
2023-04-29T10:23:59.887Z,12.00
2023-04-29T10:26:29.070Z,12.00
2023-04-29T10:28:57.203Z,12.00
2023-04-29T10:31:26.561Z,12.00
2023-04-29T10:33:59.074Z,12.00
2023-04-29T10:36:28.377Z,12.10
2023-04-29T10:38:58.321Z,12.10
2023-04-29T10:41:38.943Z,12.10
2023-04-29T10:44:05.712Z,12.00
2023-04-29T10:46:32.523Z,12.00
2023-04-29T10:49:04.445Z,12.00
2023-04-29T10:51:42.644Z,11.90
2023-04-29T10:54:16.442Z,11.90
2023-04-29T10:56:51.307Z,11.90
2023-04-29T10:59:21.682Z,11.90
2023-04-29T11:01:51.155Z,11.90
2023-04-29T11:04:23.251Z,11.90
2023-04-29T11:06:59.066Z,11.80
2023-04-29T11:09:35.315Z,11.70
2023-04-29T11:12:04.115Z,11.70
2023-04-29T11:14:41.280Z,11.70
2023-04-29T11:17:16.385Z,11.70
2023-04-29T11:19:46.205Z,11.80
2023-04-29T11:22:33.734Z,11.90
2023-04-29T11:25:05.326Z,12.00
2023-04-29T11:27:33.691Z,12.00
2023-04-29T11:30:03.140Z,12.10
2023-04-29T11:32:36.152Z,12.20
2023-04-29T11:35:12.666Z,12.20
2023-04-29T11:37:41.072Z,12.20
2023-04-29T11:40:08.898Z,12.30
2023-04-29T11:42:40.684Z,12.30
2023-04-29T11:45:07.943Z,12.30
2023-04-29T11:47:34.704Z,12.30
2023-04-29T11:50:11.037Z,12.30
2023-04-29T11:52:40.133Z,12.30
2023-04-29T11:55:09.969Z,12.30
2023-04-29T11:57:37.147Z,12.40
2023-04-29T12:00:05.235Z,12.40
2023-04-29T12:02:34.922Z,12.40
2023-04-29T12:07:34.411Z,12.40
2023-04-29T12:10:01.191Z,12.40
2023-04-29T12:12:28.408Z,12.50
2023-04-29T12:14:55.725Z,12.50
2023-04-29T12:17:22.997Z,12.50
2023-04-29T12:19:50.430Z,12.50
2023-04-29T12:22:17.126Z,12.50
2023-04-29T12:24:43.902Z,12.40
2023-04-29T12:27:11.094Z,12.40
2023-04-29T12:29:38.591Z,12.30
2023-04-29T12:32:05.501Z,12.20
2023-04-29T12:34:33.277Z,12.20
2023-04-29T12:37:01.164Z,12.10
2023-04-29T12:39:29.067Z,12.20
2023-04-29T12:41:58.655Z,12.10
2023-04-29T12:44:26.288Z,12.10
2023-04-29T12:46:58.455Z,12.10
2023-04-29T12:49:25.397Z,12.10
2023-04-29T12:51:52.012Z,12.20
2023-04-29T12:54:18.687Z,12.20
2023-04-29T12:56:48.409Z,12.20
2023-04-29T12:59:15.588Z,12.30
2023-04-29T13:01:42.249Z,12.30
2023-04-29T13:04:11.505Z,12.30
2023-04-29T13:06:41.882Z,12.40
2023-04-29T13:09:17.895Z,12.50
2023-04-29T13:11:45.159Z,12.60
2023-04-29T13:14:11.772Z,12.70
2023-04-29T13:16:38.852Z,12.80
2023-04-29T13:19:18.006Z,12.90
2023-04-29T13:21:52.234Z,13.00
2023-04-29T13:24:20.167Z,13.10
2023-04-29T13:26:50.178Z,13.10
2023-04-29T13:29:18.420Z,13.00
2023-04-29T13:31:45.144Z,13.00
2023-04-29T13:34:11.930Z,12.90
2023-04-29T13:36:38.679Z,12.80
2023-04-29T13:39:05.428Z,12.70
2023-04-29T13:41:34.928Z,12.60
2023-04-29T13:44:02.575Z,12.50
2023-04-29T13:46:31.512Z,12.40
2023-04-29T13:49:15.983Z,12.30
2023-04-29T13:52:32.226Z,12.20
2023-04-29T13:59:44.873Z,12.00
2023-04-29T14:02:24.975Z,11.90
2023-04-29T14:04:53.190Z,11.90
2023-04-29T14:07:20.566Z,11.90
2023-04-29T14:09:47.428Z,11.90
2023-04-29T14:12:14.083Z,11.80
2023-04-29T14:14:40.909Z,11.80
2023-04-29T14:17:07.683Z,11.80
2023-04-29T14:19:34.403Z,11.90
2023-04-29T14:22:01.057Z,11.90
2023-04-29T14:24:27.671Z,11.90
2023-04-29T14:26:54.392Z,12.00
2023-04-29T14:29:21.571Z,11.90
2023-04-29T14:31:48.341Z,12.00
2023-04-29T14:34:15.131Z,12.10
2023-04-29T14:36:41.901Z,12.10
2023-04-29T14:39:08.665Z,12.20
2023-04-29T14:41:35.375Z,12.20
2023-04-29T14:44:04.858Z,12.20
2023-04-29T14:46:32.556Z,12.30
2023-04-29T14:48:59.464Z,12.30
2023-04-29T14:51:27.314Z,12.40
2023-04-29T14:53:54.072Z,12.40
2023-04-29T14:56:20.833Z,12.40
2023-04-29T14:58:47.532Z,12.40
2023-04-29T15:01:14.225Z,12.40
2023-04-29T15:03:44.169Z,12.40
2023-04-29T15:06:18.805Z,12.50
2023-04-29T15:08:45.639Z,12.50
2023-04-29T15:11:12.288Z,12.60
2023-04-29T15:13:39.198Z,12.60
2023-04-29T15:16:07.429Z,12.70
2023-04-29T15:18:34.119Z,12.70
2023-04-29T15:21:00.909Z,12.70
2023-04-29T15:23:27.875Z,12.70
2023-04-29T15:25:54.657Z,12.70
2023-04-29T15:28:23.051Z,12.70
2023-04-29T15:30:49.826Z,12.80
2023-04-29T15:33:16.570Z,12.80
2023-04-29T15:35:43.995Z,12.80
2023-04-29T15:38:12.093Z,12.80
2023-04-29T15:40:39.430Z,12.80
2023-04-29T15:43:07.288Z,12.80
2023-04-29T15:45:33.953Z,12.80
2023-04-29T15:48:00.695Z,12.80
2023-04-29T15:50:27.471Z,12.80
2023-04-29T15:52:55.910Z,12.70
2023-04-29T15:55:22.632Z,12.70
2023-04-29T15:57:51.344Z,12.60
2023-04-29T16:00:18.568Z,12.60
2023-04-29T16:02:45.343Z,12.60
2023-04-29T16:05:11.982Z,12.60
2023-04-29T16:07:38.629Z,12.60
2023-04-29T16:10:05.761Z,12.60
2023-04-29T16:12:32.426Z,12.60
2023-04-29T16:14:59.127Z,12.60
2023-04-29T16:17:26.391Z,12.60
2023-04-29T16:19:54.083Z,12.60
2023-04-29T16:22:21.114Z,12.60
2023-04-29T16:24:49.314Z,12.60
2023-04-29T16:27:19.877Z,12.50
2023-04-29T16:29:46.563Z,12.50
2023-04-29T16:32:13.264Z,12.60
2023-04-29T16:34:41.760Z,12.60
2023-04-29T16:37:12.376Z,12.60
2023-04-29T16:39:39.893Z,12.60
2023-04-29T16:42:07.462Z,12.60
2023-04-29T16:44:37.643Z,12.60
2023-04-29T16:47:04.468Z,12.60
2023-04-29T16:49:35.313Z,12.50
2023-04-29T16:52:01.952Z,12.50
2023-04-29T16:54:28.668Z,12.50
2023-04-29T16:56:55.387Z,12.50
2023-04-29T16:59:22.091Z,12.50
2023-04-29T17:01:50.619Z,12.40
2023-04-29T17:04:17.395Z,12.40
2023-04-29T17:06:44.163Z,12.30
2023-04-29T17:09:11.309Z,12.30
2023-04-29T17:11:38.187Z,12.30
2023-04-29T17:14:04.852Z,12.20
2023-04-29T17:16:31.707Z,12.20
2023-04-29T17:18:58.818Z,12.10
2023-04-29T17:21:25.945Z,12.10
2023-04-29T17:23:53.283Z,12.10
2023-04-29T17:26:21.382Z,12.10
2023-04-29T17:28:48.454Z,12.10
2023-04-29T17:31:15.549Z,12.00
2023-04-29T17:33:54.679Z,12.10
2023-04-29T17:36:24.355Z,12.00
2023-04-29T17:38:51.394Z,11.90
2023-04-29T17:41:18.144Z,11.90
2023-04-29T17:43:44.758Z,12.00
2023-04-29T17:46:11.418Z,12.00
2023-04-29T17:48:38.077Z,11.90
2023-04-29T17:51:04.951Z,11.90
2023-04-29T17:53:33.068Z,11.90
2023-04-29T17:55:59.856Z,11.90
2023-04-29T17:58:28.918Z,11.80
2023-04-29T18:00:56.605Z,11.80
2023-04-29T18:03:23.756Z,11.80
2023-04-29T18:05:50.555Z,11.80
2023-04-29T18:08:17.195Z,11.70
2023-04-29T18:10:43.878Z,11.70
2023-04-29T18:13:11.015Z,11.70
2023-04-29T18:15:37.876Z,11.60
2023-04-29T18:18:04.944Z,11.60
2023-04-29T18:20:31.725Z,11.60
2023-04-29T18:22:58.399Z,11.60
2023-04-29T18:25:25.112Z,11.60
2023-04-29T18:27:54.440Z,11.50
2023-04-29T18:30:26.725Z,11.50
2023-04-29T18:32:53.475Z,11.50
2023-04-29T18:35:20.306Z,11.40
2023-04-29T18:37:46.992Z,11.40
2023-04-29T18:40:13.874Z,11.50
2023-04-29T18:42:40.921Z,11.40
2023-04-29T18:45:08.343Z,11.40
2023-04-29T18:47:35.233Z,11.40
2023-04-29T18:50:01.910Z,11.40
2023-04-29T18:52:28.609Z,11.30
2023-04-29T18:54:55.401Z,11.30
2023-04-29T18:57:22.747Z,11.30
2023-04-29T18:59:49.411Z,11.30
2023-04-29T19:02:19.137Z,11.20
2023-04-29T19:04:46.286Z,11.20
2023-04-29T19:07:12.878Z,11.20
2023-04-29T19:09:39.528Z,11.10
2023-04-29T19:12:07.545Z,11.10
2023-04-29T19:14:34.457Z,11.10
2023-04-29T19:17:01.302Z,11.10
2023-04-29T19:19:28.052Z,11.10
2023-04-29T19:21:56.778Z,11.00
2023-04-29T19:24:23.472Z,11.00
2023-04-29T19:26:50.206Z,11.00
2023-04-29T19:29:17.105Z,10.90
2023-04-29T19:31:44.054Z,10.90
2023-04-29T19:34:10.816Z,10.80
2023-04-29T19:36:38.265Z,10.80
2023-04-29T19:39:04.941Z,10.80
2023-04-29T19:41:34.604Z,10.80
2023-04-29T19:44:01.761Z,10.70
2023-04-29T19:46:28.772Z,10.70
2023-04-29T19:48:55.427Z,10.60
2023-04-29T19:51:22.030Z,10.50
2023-04-29T19:53:49.653Z,10.40
2023-04-29T19:56:16.489Z,10.40
2023-04-29T19:58:43.104Z,10.20
2023-04-29T20:01:09.814Z,10.20
2023-04-29T20:03:39.178Z,10.10
2023-04-29T20:06:07.185Z,10.00
2023-04-29T20:08:33.970Z,9.80
2023-04-29T20:11:00.865Z,9.70
2023-04-29T20:13:27.481Z,9.70
2023-04-29T20:15:54.401Z,9.60
2023-04-29T20:18:21.643Z,9.50
2023-04-29T20:20:48.568Z,9.40
2023-04-29T20:23:15.759Z,9.30
2023-04-29T20:25:42.604Z,9.30
2023-04-29T20:28:09.406Z,9.20
2023-04-29T20:30:36.337Z,9.10
2023-04-29T20:33:03.748Z,9.00
2023-04-29T20:35:30.668Z,9.00
2023-04-29T20:37:57.409Z,8.90
2023-04-29T20:40:24.121Z,8.90
2023-04-29T20:42:50.889Z,8.80
2023-04-29T20:45:18.404Z,8.70
2023-04-29T20:47:45.388Z,8.60
2023-04-29T20:50:12.439Z,8.60
2023-04-29T20:52:39.110Z,8.50
2023-04-29T20:55:06.089Z,8.50
2023-04-29T20:57:32.836Z,8.40
2023-04-29T20:59:59.542Z,8.40
2023-04-29T21:02:26.224Z,8.30
2023-04-29T21:04:53.037Z,8.20
2023-04-29T21:07:19.726Z,8.20
2023-04-29T21:09:48.606Z,8.10
2023-04-29T21:12:15.822Z,8.10
2023-04-29T21:14:43.011Z,8.10
2023-04-29T21:17:09.915Z,8.00
2023-04-29T21:19:37.627Z,7.90
2023-04-29T21:22:04.568Z,7.90
2023-04-29T21:24:31.525Z,7.80
2023-04-29T21:26:58.183Z,7.80
2023-04-29T21:29:24.795Z,7.70
2023-04-29T21:31:51.536Z,7.60
2023-04-29T21:34:18.419Z,7.60
2023-04-29T21:36:45.422Z,7.60
2023-04-29T21:39:12.049Z,7.50
2023-04-29T21:41:39.573Z,7.50
2023-04-29T21:44:06.907Z,7.40
2023-04-29T21:46:34.463Z,7.40
2023-04-29T21:49:02.805Z,7.40
2023-04-29T21:51:29.597Z,7.30
2023-04-29T21:53:56.271Z,7.30
2023-04-29T21:56:24.380Z,7.30
2023-04-29T21:58:51.025Z,7.20
2023-04-29T22:01:27.601Z,7.20
2023-04-29T22:03:56.509Z,7.20
2023-04-29T22:06:23.820Z,7.10
2023-04-29T22:08:50.870Z,7.00
2023-04-29T22:11:18.564Z,7.00
2023-04-29T22:13:45.633Z,6.90
2023-04-29T22:16:12.429Z,6.90
2023-04-29T22:18:39.121Z,6.90
2023-04-29T22:21:07.313Z,6.80
2023-04-29T22:23:34.027Z,6.70
2023-04-29T22:26:00.722Z,6.70
2023-04-29T22:28:27.429Z,6.60
2023-04-29T22:30:54.488Z,6.60
2023-04-29T22:33:21.177Z,6.50
2023-04-29T22:35:47.859Z,6.40
2023-04-29T22:38:14.468Z,6.40
2023-04-29T22:40:41.119Z,6.40
2023-04-29T22:43:07.844Z,6.30
2023-04-29T22:45:34.627Z,6.30
2023-04-29T22:48:01.446Z,6.30
2023-04-29T22:50:28.181Z,6.30
2023-04-29T22:52:54.803Z,6.20
2023-04-29T22:55:21.641Z,6.10
2023-04-29T22:57:50.990Z,6.10
2023-04-29T23:00:17.666Z,6.10
2023-04-29T23:02:44.369Z,6.10
2023-04-29T23:05:11.827Z,6.00
2023-04-29T23:07:38.456Z,6.00
2023-04-29T23:10:05.654Z,6.00
2023-04-29T23:12:32.318Z,6.10
2023-04-29T23:14:59.006Z,6.10
2023-04-29T23:17:25.691Z,6.00
2023-04-29T23:19:52.878Z,6.10
2023-04-29T23:22:19.785Z,6.10
2023-04-29T23:24:46.545Z,6.10
2023-04-29T23:27:13.232Z,6.00
2023-04-29T23:29:41.422Z,6.00
2023-04-29T23:32:08.276Z,6.00
2023-04-29T23:34:34.939Z,6.00
2023-04-29T23:37:01.691Z,6.00
2023-04-29T23:39:28.425Z,6.00
2023-04-29T23:41:55.146Z,6.00
2023-04-29T23:44:21.802Z,6.00
2023-04-29T23:46:48.558Z,6.00
2023-04-29T23:49:15.318Z,6.00
2023-04-29T23:51:41.939Z,6.00
2023-04-29T23:54:08.650Z,6.00
2023-04-29T23:56:35.417Z,6.10
2023-04-29T23:59:02.098Z,6.20
